Time;durP1;ratioP1;P1;durP2;ratioP2;P2;SDS_P1;SDS_P2;PMS_P1;PMS_P2;Temp;Humidity;BMP_temperature;BMP_pressure;BME280_temperature;BME280_humidity;BME280_pressure;Samples;Min_cycle;Max_cycle;Signal;HPM_P1;HPM_P2
2022/09/28 00:00:27;;;;;;;4.80;3.73;;;;;;;13.57;100.00;93499.78;5091231;28;20215;-61
2022/09/28 00:02:56;;;;;;;4.85;4.28;;;;;;;13.35;100.00;93493.81;5090555;28;20187;-60
2022/09/28 00:05:22;;;;;;;5.00;4.00;;;;;;;13.16;100.00;93494.28;5090559;28;20203;-60
2022/09/28 00:07:48;;;;;;;4.57;3.40;;;;;;;13.04;100.00;93488.03;5090622;28;20180;-60
2022/09/28 00:10:14;;;;;;;4.20;3.60;;;;;;;13.41;100.00;93488.78;5098662;22;20587;-64
2022/09/28 00:12:40;;;;;;;5.30;3.40;;;;;;;13.49;100.00;93477.69;5090473;28;20211;-64
2022/09/28 00:15:06;;;;;;;4.50;4.07;;;;;;;13.61;100.00;93475.50;5090551;28;20212;-65
2022/09/28 00:17:32;;;;;;;5.43;3.67;;;;;;;13.56;100.00;93465.00;5090703;28;20191;-65
2022/09/28 00:19:58;;;;;;;3.87;3.30;;;;;;;13.63;100.00;93474.34;5091129;28;20682;-62
2022/09/28 00:22:23;;;;;;;4.53;2.40;;;;;;;13.62;100.00;93477.06;5072214;28;20188;-63
2022/09/28 00:24:49;;;;;;;4.17;3.13;;;;;;;13.53;100.00;93478.13;5090254;28;20219;-63
2022/09/28 00:27:15;;;;;;;3.83;3.43;;;;;;;13.74;100.00;93476.44;5090413;28;20180;-62
2022/09/28 00:29:40;;;;;;;4.37;2.90;;;;;;;13.93;100.00;93477.66;5090786;28;20283;-64
2022/09/28 00:32:10;;;;;;;5.50;3.20;;;;;;;13.90;100.00;93480.56;5072266;28;20218;-65
2022/09/28 00:34:39;;;;;;;3.87;3.47;;;;;;;13.83;100.00;93470.28;5072175;28;20212;-64
2022/09/28 00:37:07;;;;;;;4.10;3.00;;;;;;;13.83;100.00;93472.03;5090479;28;20196;-61
2022/09/28 00:39:37;;;;;;;2.97;2.70;;;;;;;13.75;100.00;93464.47;5090116;28;20207;-60
2022/09/28 00:42:09;;;;;;;5.23;3.50;;;;;;;13.70;100.00;93472.66;5071995;28;20194;-60
2022/09/28 00:44:55;;;;;;;6.33;3.67;;;;;;;13.68;100.00;93463.59;5090525;28;20689;-60
2022/09/28 00:47:31;;;;;;;7.67;3.33;;;;;;;13.68;100.00;93463.59;5073445;28;20269;-64
2022/09/28 00:50:15;;;;;;;5.65;3.28;;;;;;;13.67;100.00;93465.38;5094022;28;20226;-61
2022/09/28 00:52:46;;;;;;;6.50;3.80;;;;;;;13.68;100.00;93479.72;5093428;28;20246;-61
2022/09/28 00:55:16;;;;;;;7.60;3.30;;;;;;;13.32;100.00;93474.53;5093394;28;20216;-61
2022/09/28 00:57:48;;;;;;;4.60;3.58;;;;;;;13.33;100.00;93458.22;5093458;28;20199;-61
2022/09/28 01:00:14;;;;;;;5.53;3.63;;;;;;;13.51;100.00;93465.56;5075554;28;20569;-65
2022/09/28 01:02:40;;;;;;;6.63;3.97;;;;;;;13.48;100.00;93478.66;5075361;28;20662;-65
2022/09/28 01:05:09;;;;;;;5.17;3.97;;;;;;;13.43;100.00;93470.75;5095196;28;20219;-61
2022/09/28 01:07:34;;;;;;;8.07;4.20;;;;;;;13.55;100.00;93471.88;5075942;28;20730;-64
2022/09/28 01:10:00;;;;;;;4.88;4.28;;;;;;;13.42;100.00;93464.03;5093760;28;20302;-63
2022/09/28 01:12:26;;;;;;;5.23;3.80;;;;;;;13.34;100.00;93459.03;5093762;28;20294;-65
2022/09/28 01:14:51;;;;;;;7.33;4.07;;;;;;;13.51;100.00;93469.84;5075054;28;20776;-64
2022/09/28 01:17:49;;;;;;;7.43;3.70;;;;;;;13.65;100.00;93476.72;5075401;28;20185;-63
2022/09/28 01:20:40;;;;;;;6.05;3.97;;;;;;;13.55;100.00;93487.22;5005506;28;20255;-64
2022/09/28 01:23:21;;;;;;;6.40;4.25;;;;;;;13.63;100.00;93476.09;5051627;28;20299;-65
2022/09/28 01:26:26;;;;;;;6.50;4.37;;;;;;;13.69;100.00;93488.16;5093066;28;20203;-65
2022/09/28 01:29:01;;;;;;;7.20;4.03;;;;;;;13.32;100.00;93463.50;5093660;28;20211;-63
2022/09/28 01:31:32;;;;;;;5.57;4.00;;;;;;;13.44;100.00;93482.53;5093217;28;20211;-65
2022/09/28 01:34:09;;;;;;;7.60;5.13;;;;;;;13.12;100.00;93470.91;5093367;28;20262;-65
2022/09/28 01:36:57;;;;;;;6.45;4.40;;;;;;;13.12;100.00;93475.19;5074692;28;20286;-64
2022/09/28 01:39:34;;;;;;;6.93;4.93;;;;;;;13.06;100.00;93488.66;5093398;28;20705;-64
2022/09/28 01:42:06;;;;;;;8.60;4.70;;;;;;;12.79;100.00;93484.84;5092836;28;20283;-64
2022/09/28 01:44:38;;;;;;;6.83;4.73;;;;;;;12.96;100.00;93468.47;5074796;28;20216;-64
2022/09/28 01:47:09;;;;;;;6.47;5.73;;;;;;;12.96;100.00;93482.97;5075690;28;20196;-62
2022/09/28 01:49:53;;;;;;;7.70;4.60;;;;;;;13.04;100.00;93499.03;5074904;28;20212;-62
2022/09/28 01:52:26;;;;;;;4.73;4.07;;;;;;;12.81;100.00;93487.22;5092378;28;20843;-63
2022/09/28 01:54:59;;;;;;;9.73;4.07;;;;;;;12.88;100.00;93472.84;5092622;28;20228;-63
2022/09/28 01:57:33;;;;;;;4.43;3.30;;;;;;;12.77;100.00;93488.53;5092939;28;20279;-60
2022/09/28 02:00:12;;;;;;;7.07;3.50;;;;;;;12.61;100.00;93507.31;5073575;28;20219;-61
2022/09/28 02:02:45;;;;;;;4.00;3.47;;;;;;;12.76;100.00;93490.31;5093160;28;20195;-65
2022/09/28 02:05:17;;;;;;;4.13;2.87;;;;;;;12.74;100.00;93473.59;5074577;28;20208;-59
2022/09/28 02:07:50;;;;;;;5.53;3.70;;;;;;;12.52;100.00;93503.25;5074161;28;20196;-60
2022/09/28 02:10:20;;;;;;;5.80;3.20;;;;;;;12.25;100.00;93517.25;5092297;28;20207;-59
2022/09/28 02:13:03;;;;;;;5.77;3.80;;;;;;;12.24;100.00;93492.72;5092256;28;20207;-60
2022/09/28 02:15:44;;;;;;;5.83;3.60;;;;;;;12.45;100.00;93484.47;5092268;28;20658;-60
2022/09/28 02:18:10;;;;;;;5.80;3.50;;;;;;;12.22;100.00;93514.25;5092503;28;20194;-60
2022/09/28 02:20:40;;;;;;;10.80;4.73;;;;;;;12.15;100.00;93508.22;5092113;28;20204;-61
2022/09/28 02:23:07;;;;;;;4.83;3.70;;;;;;;12.55;100.00;93487.59;5092450;28;20192;-63
2022/09/28 02:25:46;;;;;;;3.83;3.43;;;;;;;12.55;100.00;93492.69;5092002;28;20196;-62
2022/09/28 02:28:12;;;;;;;13.03;4.47;;;;;;;12.18;100.00;93507.91;5073926;28;20209;-62
2022/09/28 02:30:40;;;;;;;6.57;4.33;;;;;;;12.06;100.00;93496.50;5091711;28;20215;-63
2022/09/28 02:33:11;;;;;;;6.33;4.40;;;;;;;12.39;100.00;93492.78;5093005;28;20215;-65
2022/09/28 02:35:39;;;;;;;7.10;4.80;;;;;;;12.33;100.00;93513.84;5091857;28;20260;-64
2022/09/28 02:38:04;;;;;;;5.93;4.47;;;;;;;12.43;100.00;93504.25;5091849;28;20184;-65
2022/09/28 02:40:34;;;;;;;7.10;4.60;;;;;;;12.46;100.00;93498.81;5091870;28;20214;-65
2022/09/28 02:43:31;;;;;;;6.13;4.63;;;;;;;12.14;100.00;93502.34;5091862;28;20202;-65
2022/09/28 02:46:25;;;;;;;6.33;4.83;;;;;;;12.11;100.00;93509.53;5091890;28;20274;-64
2022/09/28 02:49:06;;;;;;;5.37;4.60;;;;;;;12.40;100.00;93494.41;5073780;28;20222;-65
2022/09/28 02:52:09;;;;;;;10.70;4.83;;;;;;;12.42;100.00;93500.88;5091668;28;20204;-64
2022/09/28 02:54:52;;;;;;;9.07;5.30;;;;;;;12.01;100.00;93498.75;5092049;28;20212;-63
2022/09/28 02:57:29;;;;;;;9.30;4.90;;;;;;;12.14;100.00;93504.09;5092042;28;20188;-65
2022/09/28 03:02:52;;;;;;;6.10;4.80;;;;;;;12.54;100.00;93507.19;5099783;22;20699;-62
2022/09/28 03:05:42;;;;;;;6.63;5.10;;;;;;;12.12;100.00;93514.44;5091539;28;20406;-62
2022/09/28 03:08:24;;;;;;;8.70;5.43;;;;;;;12.38;100.00;93509.06;5091739;28;20573;-62
2022/09/28 03:10:57;;;;;;;10.53;4.90;;;;;;;12.40;100.00;93517.34;5091592;28;20187;-62
2022/09/28 03:13:25;;;;;;;6.07;4.77;;;;;;;12.28;100.00;93514.34;5091407;28;20219;-62
2022/09/28 03:15:50;;;;;;;9.93;6.77;;;;;;;12.06;100.00;93521.97;5073490;28;20200;-59
2022/09/28 03:18:22;;;;;;;8.60;6.37;;;;;;;12.16;100.00;93535.31;5091665;28;20192;-62
2022/09/28 03:20:48;;;;;;;5.10;4.50;;;;;;;12.05;100.00;93526.28;5091495;28;20188;-62
2022/09/28 03:23:14;;;;;;;7.67;4.90;;;;;;;12.14;100.00;93534.69;5091655;28;20548;-62
2022/09/28 03:25:39;;;;;;;5.87;4.10;;;;;;;12.00;100.00;93527.75;5091483;28;20248;-63
2022/09/28 03:28:05;;;;;;;4.87;3.90;;;;;;;12.23;100.00;93533.66;5091610;28;20188;-60
2022/09/28 03:30:30;;;;;;;5.00;3.90;;;;;;;12.12;100.00;93537.38;5091647;28;20617;-66
2022/09/28 03:32:58;;;;;;;5.90;3.53;;;;;;;12.07;100.00;93528.66;5073183;28;20216;-62
2022/09/28 03:35:23;;;;;;;6.70;4.80;;;;;;;12.22;100.00;93543.06;5091097;28;20207;-62
2022/09/28 03:37:48;;;;;;;6.37;4.10;;;;;;;12.26;100.00;93541.00;5072990;28;20660;-62
2022/09/28 03:40:14;;;;;;;5.70;4.30;;;;;;;12.19;100.00;93534.97;5073044;28;20259;-63
2022/09/28 03:42:39;;;;;;;6.43;3.97;;;;;;;12.41;100.00;93544.41;5073138;28;20200;-60
2022/09/28 03:45:05;;;;;;;8.23;4.57;;;;;;;12.44;100.00;93546.63;5090793;28;20265;-61
2022/09/28 03:47:31;;;;;;;8.47;4.13;;;;;;;12.26;100.00;93553.72;5090907;28;20192;-63
2022/09/28 03:49:56;;;;;;;8.30;4.07;;;;;;;12.42;100.00;93546.00;5072891;28;20209;-68
2022/09/28 03:52:22;;;;;;;6.73;4.43;;;;;;;12.52;100.00;93538.94;5091695;28;20218;-63
2022/09/28 03:54:47;;;;;;;6.47;3.33;;;;;;;12.73;100.00;93545.94;5091186;28;20249;-63
2022/09/28 03:57:12;;;;;;;4.63;4.20;;;;;;;12.59;100.00;93542.38;5091340;28;20285;-61
2022/09/28 03:59:38;;;;;;;8.17;3.97;;;;;;;12.43;100.00;93548.38;5094144;28;20585;-63
2022/09/28 04:02:04;;;;;;;5.33;3.77;;;;;;;12.66;100.00;93550.94;5073017;28;20191;-62
2022/09/28 04:04:30;;;;;;;6.87;3.90;;;;;;;12.70;100.00;93553.94;5090598;28;20229;-65
2022/09/28 04:06:55;;;;;;;12.10;3.50;;;;;;;12.70;100.00;93556.50;5072480;28;20196;-64
2022/09/28 04:09:20;;;;;;;5.83;4.30;;;;;;;12.57;100.00;93551.94;5072705;28;20224;-62
2022/09/28 04:11:46;;;;;;;7.43;3.50;;;;;;;12.55;100.00;93546.22;5090433;28;20251;-67
2022/09/28 04:14:12;;;;;;;6.87;4.37;;;;;;;12.74;100.00;93533.03;5072360;28;20212;-66
2022/09/28 04:16:37;;;;;;;5.03;3.77;;;;;;;12.80;100.00;93532.34;5091012;28;20192;-66
2022/09/28 04:19:03;;;;;;;8.53;4.23;;;;;;;12.85;100.00;93519.88;5090727;28;20632;-64
2022/09/28 04:21:28;;;;;;;7.83;4.43;;;;;;;13.09;100.00;93524.03;5072607;28;20676;-64
2022/09/28 04:23:54;;;;;;;4.97;3.77;;;;;;;13.14;100.00;93535.31;5093498;28;20654;-65
2022/09/28 04:26:23;;;;;;;9.43;4.70;;;;;;;13.03;100.00;93532.34;5094022;28;20642;-66
2022/09/28 04:31:38;;;;;;;6.73;4.40;;;;;;;12.93;100.00;93535.13;5101782;22;20293;-65
2022/09/28 04:34:04;;;;;;;5.70;4.10;;;;;;;12.81;100.00;93536.47;5093658;28;20242;-64
2022/09/28 04:36:29;;;;;;;5.77;4.37;;;;;;;13.07;100.00;93543.81;5094014;28;20196;-65
2022/09/28 04:38:55;;;;;;;5.80;4.40;;;;;;;12.88;100.00;93544.25;5093837;28;20265;-65
2022/09/28 04:41:27;;;;;;;9.07;4.77;;;;;;;12.66;100.00;93535.66;5093850;28;20184;-64
2022/09/28 04:43:52;;;;;;;10.93;5.47;;;;;;;12.68;100.00;93534.50;5093611;28;20269;-62
2022/09/28 04:46:18;;;;;;;7.90;5.30;;;;;;;12.98;100.00;93540.50;5075728;28;20188;-61
2022/09/28 04:48:44;;;;;;;9.87;6.30;;;;;;;12.81;100.00;93551.78;5075394;28;20265;-60
2022/09/28 04:51:10;;;;;;;5.23;4.73;;;;;;;12.72;100.00;93534.97;5093500;28;20200;-61
2022/09/28 04:53:35;;;;;;;6.73;4.50;;;;;;;12.66;100.00;93533.88;5075281;28;20212;-62
2022/09/28 04:56:09;;;;;;;7.53;4.93;;;;;;;12.68;100.00;93538.81;5093313;28;20650;-60
2022/09/28 04:58:34;;;;;;;7.60;4.30;;;;;;;13.01;100.00;93527.41;5093322;28;20192;-60
2022/09/28 05:01:04;;;;;;;7.87;5.17;;;;;;;14.50;100.00;93539.09;5093266;28;20188;-61
2022/09/28 05:03:30;;;;;;;6.10;3.40;;;;;;;14.90;100.00;93518.84;5093456;28;20191;-60
2022/09/28 05:05:55;;;;;;;8.95;4.90;;;;;;;16.08;100.00;93529.88;5075409;28;20569;-61
2022/09/28 05:08:21;;;;;;;7.07;4.53;;;;;;;16.27;100.00;93529.19;5093262;28;20265;-60
2022/09/28 05:10:46;;;;;;;9.25;4.97;;;;;;;16.59;100.00;93531.09;5074940;28;20210;-62
2022/09/28 05:13:13;;;;;;;8.75;4.50;;;;;;;16.21;100.00;93558.16;5092996;28;20200;-63
2022/09/28 05:15:40;;;;;;;7.80;4.40;;;;;;;15.89;100.00;93600.59;5093181;28;20212;-64
2022/09/28 05:18:06;;;;;;;5.35;4.45;;;;;;;15.51;100.00;93572.91;5093134;28;20260;-63
2022/09/28 05:20:32;;;;;;;6.22;4.05;;;;;;;14.95;100.00;93542.09;5092983;28;20293;-62
2022/09/28 05:22:57;;;;;;;7.50;4.35;;;;;;;14.25;100.00;93556.47;5085278;22;20298;-62
2022/09/28 05:25:23;;;;;;;9.85;4.95;;;;;;;14.19;100.00;93554.63;5074237;22;20782;-62
2022/09/28 05:27:54;;;;;;;11.13;4.75;;;;;;;14.27;100.00;93557.88;5072734;28;20559;-64
2022/09/28 05:30:21;;;;;;;7.93;5.38;;;;;;;14.02;100.00;93561.69;5072351;28;20197;-62
2022/09/28 05:32:48;;;;;;;11.63;6.27;;;;;;;13.66;100.00;93558.25;5071970;28;20208;-62
2022/09/28 05:35:13;;;;;;;9.13;5.78;;;;;;;13.89;100.00;93563.28;5069246;28;20215;-63
2022/09/28 05:37:40;;;;;;;10.50;5.68;;;;;;;13.82;100.00;93547.88;5071978;28;20568;-62
2022/09/28 05:40:06;;;;;;;10.82;6.90;;;;;;;13.77;100.00;93542.50;5072642;28;20273;-62
2022/09/28 05:42:31;;;;;;;9.30;6.70;;;;;;;13.80;100.00;93559.22;5062247;22;20221;-63
2022/09/28 05:44:59;;;;;;;12.20;6.53;;;;;;;13.96;100.00;93567.50;5072407;28;20201;-62
2022/09/28 05:47:26;;;;;;;13.03;6.67;;;;;;;14.19;100.00;93568.22;5072433;28;20185;-63
2022/09/28 05:49:52;;;;;;;10.10;6.90;;;;;;;14.15;100.00;93563.63;5054607;28;20213;-62
2022/09/28 05:52:18;;;;;;;18.60;9.75;;;;;;;14.17;100.00;93557.38;5072257;28;20240;-62
2022/09/28 05:54:44;;;;;;;17.53;10.73;;;;;;;13.95;100.00;93549.81;5090453;22;20228;-61
2022/09/28 05:57:10;;;;;;;20.10;11.37;;;;;;;13.67;100.00;93552.19;5092458;28;20203;-61
2022/09/28 05:59:35;;;;;;;19.23;10.75;;;;;;;13.75;100.00;93549.56;5092335;28;20698;-63
2022/09/28 06:02:01;;;;;;;17.35;11.77;;;;;;;14.06;100.00;93557.00;5092223;28;20578;-62
2022/09/28 06:04:27;;;;;;;24.00;13.45;;;;;;;14.24;100.00;93555.69;5092560;28;20208;-61
2022/09/28 06:06:52;;;;;;;21.10;11.57;;;;;;;14.08;100.00;93563.53;5074353;28;20211;-66
2022/09/28 06:09:18;;;;;;;21.85;12.38;;;;;;;14.18;100.00;93565.84;5100118;22;20228;-66
2022/09/28 06:11:43;;;;;;;20.88;13.73;;;;;;;14.15;100.00;93561.88;5092367;28;20279;-64
2022/09/28 06:14:09;;;;;;;21.98;12.98;;;;;;;14.26;100.00;93563.19;5092321;28;20282;-66
2022/09/28 06:16:34;;;;;;;21.37;12.87;;;;;;;14.32;100.00;93557.38;5092396;28;20184;-68
2022/09/28 06:19:00;;;;;;;18.58;12.13;;;;;;;14.34;100.00;93560.56;5078294;22;20291;-68
2022/09/28 06:21:26;;;;;;;21.90;11.95;;;;;;;13.90;100.00;93577.63;5098206;22;20227;-67
2022/09/28 06:23:51;;;;;;;17.05;11.52;;;;;;;14.20;100.00;93569.00;5073918;28;20207;-67
2022/09/28 06:26:17;;;;;;;28.48;17.48;;;;;;;14.34;100.00;93578.47;5092114;28;20625;-68
2022/09/28 06:28:42;;;;;;;18.20;12.25;;;;;;;14.81;100.00;93568.53;5092293;28;20212;-66
2022/09/28 06:31:08;;;;;;;28.02;14.65;;;;;;;14.67;100.00;93568.56;5091821;28;20204;-61
2022/09/28 06:33:34;;;;;;;25.85;15.18;;;;;;;14.80;100.00;93574.63;5073712;28;20249;-66
2022/09/28 06:36:00;;;;;;;28.52;14.10;;;;;;;14.83;100.00;93581.13;5091785;28;20261;-67
2022/09/28 06:38:26;;;;;;;30.90;16.63;;;;;;;14.64;100.00;93581.75;5092054;28;20192;-64
2022/09/28 06:40:52;;;;;;;29.48;17.55;;;;;;;14.94;100.00;93591.72;5073936;28;20615;-67
2022/09/28 06:43:17;;;;;;;26.60;17.27;;;;;;;14.95;100.00;93582.25;5073954;28;20184;-68
2022/09/28 06:45:49;;;;;;;28.23;17.50;;;;;;;14.95;100.00;93580.47;5099276;22;20288;-68
2022/09/28 06:48:16;;;;;;;27.80;17.70;;;;;;;15.04;100.00;93579.41;5092031;28;20188;-69
2022/09/28 06:50:42;;;;;;;26.30;18.92;;;;;;;15.06;100.00;93576.66;5062813;22;20677;-66
2022/09/28 06:53:12;;;;;;;32.47;19.38;;;;;;;15.04;100.00;93593.97;5071769;28;20230;-66
2022/09/28 06:55:42;;;;;;;34.33;18.60;;;;;;;15.21;100.00;93602.97;5071307;28;20205;-67
2022/09/28 06:58:13;;;;;;;25.83;17.45;;;;;;;15.19;100.00;93596.47;5071441;28;20189;-67
2022/09/28 07:00:39;;;;;;;22.05;15.45;;;;;;;15.24;100.00;93609.50;5071298;28;20749;-66
2022/09/28 07:03:07;;;;;;;24.17;15.52;;;;;;;15.07;100.00;93599.50;5071459;28;20189;-66
2022/09/28 07:05:35;;;;;;;26.35;14.43;;;;;;;14.89;100.00;93581.22;5071199;28;20291;-66
2022/09/28 07:08:03;;;;;;;24.58;13.63;;;;;;;14.71;100.00;93593.63;5071151;28;20185;-66
2022/09/28 07:10:30;;;;;;;21.38;14.88;;;;;;;14.53;100.00;93595.78;5036513;28;20303;-66
2022/09/28 07:13:01;;;;;;;27.70;14.82;;;;;;;14.59;100.00;93586.59;5070949;28;20345;-67
2022/09/28 07:15:26;;;;;;;25.63;14.27;;;;;;;14.78;100.00;93593.69;5069793;28;20291;-66
2022/09/28 07:17:57;;;;;;;32.22;19.98;;;;;;;14.99;100.00;93599.63;5053197;28;20716;-66
2022/09/28 07:20:24;;;;;;;23.70;14.77;;;;;;;14.94;100.00;93586.59;5070909;28;20215;-65
2022/09/28 07:22:58;;;;;;;23.35;14.20;;;;;;;15.14;100.00;93585.00;5070832;28;20183;-66
2022/09/28 07:25:24;;;;;;;35.05;23.70;;;;;;;15.40;100.00;93604.13;5071098;28;20303;-66
2022/09/28 07:27:54;;;;;;;23.00;13.50;;;;;;;15.21;100.00;93597.06;5070881;28;20188;-66
2022/09/28 07:30:20;;;;;;;25.02;12.50;;;;;;;15.13;100.00;93600.53;5070926;28;20307;-66
2022/09/28 07:32:47;;;;;;;20.02;13.52;;;;;;;15.35;100.00;93602.09;5070880;28;20225;-66
2022/09/28 07:35:13;;;;;;;19.77;13.13;;;;;;;15.62;100.00;93609.06;5060550;22;20224;-67
2022/09/28 07:37:38;;;;;;;22.45;12.65;;;;;;;15.77;100.00;93616.66;5052912;28;20252;-66
2022/09/28 07:42:43;;;;;;;23.88;13.63;;;;;;;15.33;100.00;93590.47;5098790;22;20710;-66
2022/09/28 07:45:09;;;;;;;21.55;13.02;;;;;;;15.48;100.00;93609.13;5090825;28;20389;-66
2022/09/28 07:47:34;;;;;;;19.85;12.95;;;;;;;15.63;100.00;93617.56;5091095;28;20184;-66
2022/09/28 07:49:59;;;;;;;22.80;13.77;;;;;;;15.92;100.00;93614.78;5090753;28;20212;-66
2022/09/28 07:52:27;;;;;;;27.95;13.38;;;;;;;15.99;100.00;93610.50;5090946;28;20207;-62
2022/09/28 07:54:52;;;;;;;18.20;10.57;;;;;;;16.07;100.00;93638.56;5098954;22;20215;-62
2022/09/28 07:57:20;;;;;;;16.55;10.73;;;;;;;16.23;100.00;93614.38;5091464;28;20248;-64
2022/09/28 07:59:46;;;;;;;19.60;10.93;;;;;;;16.49;100.00;93630.72;5094435;28;20204;-62
2022/09/28 08:02:12;;;;;;;13.95;7.93;;;;;;;16.40;100.00;93633.63;5094256;28;20180;-62
2022/09/28 08:04:38;;;;;;;10.63;8.73;;;;;;;16.51;100.00;93623.63;5094310;28;20203;-62
2022/09/28 08:07:09;;;;;;;14.70;9.45;;;;;;;16.56;100.00;93613.56;5076183;28;20271;-62
2022/09/28 08:09:35;;;;;;;12.98;7.88;;;;;;;16.44;100.00;93602.25;5094418;28;20207;-62
2022/09/28 08:12:00;;;;;;;11.70;6.22;;;;;;;16.63;100.00;93644.41;5094038;28;20589;-62
2022/09/28 08:14:27;;;;;;;12.80;6.65;;;;;;;16.55;100.00;93660.75;5076018;28;20257;-62
2022/09/28 08:16:52;;;;;;;12.88;6.63;;;;;;;16.52;100.00;93638.03;5075889;28;20262;-63
2022/09/28 08:19:18;;;;;;;8.77;6.57;;;;;;;16.63;100.00;93634.94;5094063;28;20212;-62
2022/09/28 08:21:46;;;;;;;8.85;6.25;;;;;;;16.54;100.00;93651.47;5093940;28;20180;-63
2022/09/28 08:24:14;;;;;;;9.93;5.72;;;;;;;16.38;100.00;93641.47;5093868;28;20220;-62
2022/09/28 08:26:39;;;;;;;11.32;6.45;;;;;;;16.65;100.00;93640.66;5094083;28;20188;-62
2022/09/28 08:29:05;;;;;;;13.57;5.50;;;;;;;17.10;100.00;93656.41;5101874;22;20688;-61
2022/09/28 08:31:31;;;;;;;10.80;6.32;;;;;;;17.23;100.00;93666.75;5093797;28;20599;-62
2022/09/28 08:33:56;;;;;;;5.32;4.80;;;;;;;17.63;100.00;93650.44;5094028;28;20216;-62
2022/09/28 08:36:23;;;;;;;7.32;4.10;;;;;;;17.71;100.00;93690.56;5075638;28;20713;-62
2022/09/28 08:38:49;;;;;;;5.95;4.10;;;;;;;17.86;100.00;93747.72;5093447;28;20828;-62
2022/09/28 08:41:25;;;;;;;9.18;4.40;;;;;;;18.09;100.00;93702.66;5093970;28;20684;-65
2022/09/28 08:44:24;;;;;;;10.50;4.18;;;;;;;18.55;100.00;93741.22;5093906;28;20208;-63
2022/09/28 08:46:55;;;;;;;10.82;4.25;;;;;;;18.84;100.00;93721.97;5053899;28;20211;-61
2022/09/28 08:49:33;;;;;;;8.63;4.30;;;;;;;19.16;100.00;93662.59;5075503;28;20700;-67
2022/09/28 08:52:02;;;;;;;7.90;4.82;;;;;;;19.39;100.00;93682.72;5093661;28;20215;-67
2022/09/28 08:54:40;;;;;;;5.38;3.65;;;;;;;19.54;100.00;93734.78;5075541;28;20227;-65
2022/09/28 08:57:17;;;;;;;8.20;4.10;;;;;;;20.00;100.00;93701.75;5093548;28;20192;-65
2022/09/28 08:59:46;;;;;;;9.43;4.03;;;;;;;20.05;100.00;93735.47;5093341;28;20700;-65
2022/09/28 09:02:22;;;;;;;7.75;4.47;;;;;;;20.27;100.00;93771.25;5093503;28;20188;-66
2022/09/28 09:04:48;;;;;;;14.23;4.38;;;;;;;20.12;100.00;93742.38;5094018;28;20230;-65
2022/09/28 09:07:44;;;;;;;6.55;3.67;;;;;;;20.01;100.00;93695.59;5093384;28;20188;-62
2022/09/28 09:10:36;;;;;;;10.15;3.85;;;;;;;20.15;100.00;93729.03;5074972;28;20257;-67
2022/09/28 09:13:25;;;;;;;8.23;3.90;;;;;;;19.93;100.00;93734.56;5078747;28;20228;-63
2022/09/28 09:16:17;;;;;;;12.10;6.85;;;;;;;19.75;100.00;93657.09;5093320;28;20245;-67
2022/09/28 09:18:54;;;;;;;9.07;3.47;;;;;;;19.44;100.00;93754.25;5082260;28;20716;-67
2022/09/28 09:21:40;;;;;;;7.00;3.70;;;;;;;19.62;100.00;93718.28;5093237;28;20238;-66
2022/09/28 09:24:39;;;;;;;9.25;3.05;;;;;;;19.91;100.00;93722.88;5093138;28;20279;-62
2022/09/28 09:27:13;;;;;;;7.93;3.38;;;;;;;20.29;100.00;93767.47;5093282;28;20188;-64
2022/09/28 09:29:55;;;;;;;6.00;3.17;;;;;;;20.72;100.00;93801.09;5093165;28;20260;-63
2022/09/28 09:32:38;;;;;;;8.07;3.45;;;;;;;21.34;100.00;93777.63;5074984;28;20216;-63
2022/09/28 09:35:30;;;;;;;7.82;3.55;;;;;;;21.66;100.00;93822.22;5093399;28;20621;-63
2022/09/28 09:43:17;;;;;;;6.03;2.60;;;;;;;22.55;100.00;93885.19;5100590;22;20239;-64
2022/09/28 09:46:23;;;;;;;10.10;2.80;;;;;;;22.91;100.00;93852.34;5092759;28;20210;-62
2022/09/28 09:49:00;;;;;;;4.70;2.80;;;;;;;23.08;100.00;93905.16;5092945;28;20207;-63
2022/09/28 09:51:40;;;;;;;10.07;2.92;;;;;;;23.32;100.00;93914.56;5092733;28;20184;-65
2022/09/28 09:54:19;;;;;;;5.88;2.30;;;;;;;23.44;99.09;93935.28;5092915;28;20240;-64
2022/09/28 09:57:00;;;;;;;6.97;2.20;;;;;;;23.65;97.81;93921.75;5092540;28;20221;-63
2022/09/28 09:59:32;;;;;;;12.25;3.17;;;;;;;23.57;81.69;93935.88;5092634;28;20230;-62
2022/09/28 10:02:01;;;;;;;10.35;3.15;;;;;;;23.67;79.39;93881.59;5092995;28;20176;-63
2022/09/28 10:04:34;;;;;;;7.15;2.28;;;;;;;23.72;76.06;93946.56;5092662;28;20207;-63
2022/09/28 10:07:05;;;;;;;6.70;2.08;;;;;;;23.86;74.82;93955.72;5092601;28;20188;-62
2022/09/28 10:09:38;;;;;;;4.85;1.83;;;;;;;23.95;70.57;94054.84;5092582;28;20693;-63
2022/09/28 10:12:09;;;;;;;2.67;1.70;;;;;;;23.85;70.42;94018.25;5074470;28;20211;-65
2022/09/28 10:14:35;;;;;;;3.50;1.92;;;;;;;23.65;70.24;94012.59;5074211;28;20203;-61
2022/09/28 10:17:02;;;;;;;4.47;1.85;;;;;;;23.68;69.50;94015.53;5092849;28;20191;-62
2022/09/28 10:19:31;;;;;;;5.55;2.20;;;;;;;23.97;68.24;94040.63;5092012;28;20221;-62
2022/09/28 10:22:00;;;;;;;2.20;1.73;;;;;;;24.16;66.40;94073.25;5092050;28;20192;-65
2022/09/28 10:24:41;;;;;;;6.22;1.92;;;;;;;24.44;65.27;94051.75;5092338;28;20671;-64
2022/09/28 10:27:13;;;;;;;5.05;2.33;;;;;;;24.97;67.37;93987.28;5092336;28;20299;-63
2022/09/28 10:30:01;;;;;;;12.57;1.98;;;;;;;25.07;66.79;93991.09;5092074;28;20199;-64
2022/09/28 10:32:36;;;;;;;8.48;2.08;;;;;;;25.18;61.56;94115.94;5073914;28;20227;-64
2022/09/28 10:35:17;;;;;;;4.63;2.17;;;;;;;25.37;62.46;94069.69;5092219;28;20708;-64
2022/09/28 10:37:54;;;;;;;8.80;3.92;;;;;;;25.72;63.32;94031.22;5099524;22;20274;-65
2022/09/28 10:40:28;;;;;;;4.72;2.10;;;;;;;25.68;59.31;94111.63;5091944;28;20203;-63
2022/09/28 10:43:21;;;;;;;6.50;1.90;;;;;;;25.90;61.09;94038.78;5092223;28;20283;-61
2022/09/28 10:45:47;;;;;;;6.40;2.10;;;;;;;25.95;58.40;94122.22;5087606;28;20673;-62
2022/09/28 10:48:19;;;;;;;4.03;1.50;;;;;;;26.21;57.63;94116.41;5091998;28;20229;-63
2022/09/28 10:50:58;;;;;;;4.25;2.08;;;;;;;26.18;57.61;94106.44;5092229;28;20191;-62
2022/09/28 10:53:23;;;;;;;5.28;1.70;;;;;;;26.64;57.00;94116.47;5091686;28;20211;-64
2022/09/28 10:56:03;;;;;;;8.95;1.77;;;;;;;26.77;56.41;94120.59;5091888;28;20561;-63
2022/09/28 10:58:32;;;;;;;2.85;1.60;;;;;;;26.76;52.46;94210.31;5091656;28;20178;-62
2022/09/28 11:01:02;;;;;;;2.90;1.75;;;;;;;26.73;53.80;94147.38;5091673;28;20195;-61
2022/09/28 11:03:29;;;;;;;4.03;1.77;;;;;;;25.99;53.98;94117.34;5091740;28;20275;-62
2022/09/28 11:05:58;;;;;;;3.85;1.58;;;;;;;25.82;54.63;94091.28;5091532;28;20239;-62
2022/09/28 11:08:29;;;;;;;5.03;1.38;;;;;;;26.08;54.14;94089.91;5091595;28;20180;-64
2022/09/28 11:11:07;;;;;;;3.42;1.30;;;;;;;26.52;51.49;94178.38;5091773;28;20215;-63
2022/09/28 11:14:00;;;;;;;5.97;2.08;;;;;;;26.89;50.17;94219.63;5091408;28;20262;-63
2022/09/28 11:16:28;;;;;;;3.22;1.40;;;;;;;26.59;49.53;94223.34;5087623;28;20204;-63
2022/09/28 11:18:57;;;;;;;3.60;1.30;;;;;;;26.97;48.98;94206.94;5091441;28;20208;-66
2022/09/28 11:21:28;;;;;;;4.35;1.60;;;;;;;27.39;49.03;94132.28;5091630;28;20275;-63
2022/09/28 11:23:56;;;;;;;2.30;1.52;;;;;;;27.37;49.68;94097.78;5091248;28;20299;-61
2022/09/28 11:26:23;;;;;;;2.65;1.30;;;;;;;27.22;48.90;94099.44;5073338;28;20621;-61
2022/09/28 11:28:52;;;;;;;2.30;1.30;;;;;;;27.56;47.92;94121.75;5091283;28;20262;-62
2022/09/28 11:31:25;;;;;;;3.17;1.52;;;;;;;27.81;45.23;94184.72;5091047;28;20646;-65
2022/09/28 11:34:02;;;;;;;5.40;1.52;;;;;;;27.46;46.23;94129.50;5090856;28;20653;-63
2022/09/28 11:36:57;;;;;;;6.75;2.13;;;;;;;27.78;43.78;94176.56;5091565;28;20233;-63
2022/09/28 11:39:41;;;;;;;3.58;1.55;;;;;;;28.05;44.75;94146.00;5072915;28;20208;-63
2022/09/28 11:42:34;;;;;;;8.07;2.03;;;;;;;28.01;45.98;94075.13;5091170;28;20195;-61
2022/09/28 11:45:38;;;;;;;3.13;1.27;;;;;;;28.20;43.71;94146.91;5072799;28;20302;-62
2022/09/28 11:48:09;;;;;;;4.25;1.65;;;;;;;28.24;46.26;94048.59;5088010;28;20207;-62
2022/09/28 11:50:52;;;;;;;2.33;1.25;;;;;;;28.38;44.27;94100.47;5072672;28;20212;-61
2022/09/28 11:53:21;;;;;;;3.92;2.20;;;;;;;28.33;46.26;94016.75;5091029;28;20211;-62